createdAt,value
2017-07-27T00:02:24.086Z,99.90
2017-07-27T00:04:53.223Z,99.90
2017-07-27T00:07:21.632Z,99.90
2017-07-27T00:09:50.317Z,99.90
2017-07-27T00:12:18.987Z,99.90
2017-07-27T00:14:47.584Z,99.90
2017-07-27T00:17:16.069Z,99.90
2017-07-27T00:19:44.720Z,99.90
2017-07-27T00:22:13.589Z,99.90
2017-07-27T00:24:43.397Z,99.90
2017-07-27T00:27:12.340Z,99.90
2017-07-27T00:29:42.697Z,99.90
2017-07-27T00:32:11.704Z,99.90
2017-07-27T00:34:40.875Z,99.90
2017-07-27T00:37:09.928Z,99.90
2017-07-27T00:39:39.299Z,99.90
2017-07-27T00:42:08.126Z,99.90
2017-07-27T00:44:36.612Z,99.90
2017-07-27T00:47:05.276Z,99.90
2017-07-27T00:49:33.705Z,99.90
2017-07-27T00:52:02.973Z,99.90
2017-07-27T00:54:31.932Z,99.90
2017-07-27T00:57:01.223Z,99.90
2017-07-27T00:59:29.554Z,99.90
2017-07-27T01:01:59.125Z,99.90
2017-07-27T01:04:27.465Z,99.90
2017-07-27T01:06:55.800Z,99.90
2017-07-27T01:09:24.354Z,99.90
2017-07-27T01:11:53.698Z,99.90
2017-07-27T01:14:22.134Z,99.90
2017-07-27T01:16:50.854Z,99.90
2017-07-27T01:19:19.310Z,99.90
2017-07-27T01:21:47.953Z,99.90
2017-07-27T01:24:16.428Z,99.90
2017-07-27T01:26:45.810Z,99.90
2017-07-27T01:29:14.508Z,99.90
2017-07-27T01:31:43.989Z,99.90
2017-07-27T01:34:12.704Z,99.90
2017-07-27T01:36:41.918Z,99.90
2017-07-27T01:39:11.768Z,99.90
2017-07-27T01:41:40.577Z,99.90
2017-07-27T01:44:09.613Z,99.90
2017-07-27T01:46:38.842Z,99.90
2017-07-27T01:49:08.252Z,99.90
2017-07-27T01:51:36.718Z,99.90
2017-07-27T01:54:05.488Z,99.90
2017-07-27T01:56:33.928Z,99.90
2017-07-27T01:59:02.269Z,99.90
2017-07-27T02:01:31.641Z,99.90
2017-07-27T02:04:00.436Z,99.90
2017-07-27T02:06:28.807Z,99.90
2017-07-27T02:08:57.486Z,99.90
2017-07-27T02:11:25.849Z,99.90
2017-07-27T02:13:54.349Z,99.90
2017-07-27T02:16:23.582Z,99.90
2017-07-27T02:18:52.293Z,99.90
2017-07-27T02:21:20.954Z,99.90
2017-07-27T02:23:49.946Z,99.90
2017-07-27T02:26:18.548Z,99.90
2017-07-27T02:28:47.081Z,99.90
2017-07-27T02:31:15.868Z,99.90
2017-07-27T02:33:44.606Z,99.90
2017-07-27T02:36:13.599Z,99.90
2017-07-27T02:38:42.982Z,99.90
2017-07-27T02:41:11.947Z,99.90
2017-07-27T02:43:41.129Z,99.90
2017-07-27T02:46:11.634Z,99.90
2017-07-27T02:48:40.881Z,99.90
2017-07-27T02:51:10.424Z,99.90
2017-07-27T02:53:40.899Z,99.90
2017-07-27T02:56:09.961Z,99.90
2017-07-27T02:58:39.155Z,99.90
2017-07-27T03:01:08.861Z,99.90
2017-07-27T03:03:37.888Z,99.90
2017-07-27T03:06:07.160Z,99.90
2017-07-27T03:08:35.837Z,99.90
2017-07-27T03:11:04.144Z,99.90
2017-07-27T03:13:32.496Z,99.90
2017-07-27T03:16:01.650Z,99.90
2017-07-27T03:18:29.966Z,99.90
2017-07-27T03:21:00.088Z,99.90
2017-07-27T03:23:28.485Z,99.90
2017-07-27T03:25:56.818Z,99.90
2017-07-27T03:28:25.171Z,99.90
2017-07-27T03:30:54.300Z,99.90
2017-07-27T03:33:22.798Z,99.90
2017-07-27T03:35:51.192Z,99.90
2017-07-27T03:38:20.405Z,99.90
2017-07-27T03:40:48.971Z,99.90
2017-07-27T03:43:17.792Z,99.90
2017-07-27T03:45:47.744Z,99.90
2017-07-27T03:48:16.388Z,99.90
2017-07-27T03:50:45.347Z,99.90
2017-07-27T03:53:14.509Z,99.90
2017-07-27T03:55:43.331Z,99.90
2017-07-27T03:58:12.630Z,99.90
2017-07-27T04:00:42.551Z,99.90
2017-07-27T04:03:12.116Z,99.90
2017-07-27T04:05:41.181Z,99.90
2017-07-27T04:08:12.146Z,99.70
2017-07-27T04:10:41.079Z,99.60
2017-07-27T04:13:10.437Z,99.60
2017-07-27T04:15:39.772Z,99.40
2017-07-27T04:18:09.789Z,99.00
2017-07-27T04:20:40.510Z,98.80
2017-07-27T04:23:11.021Z,98.70
2017-07-27T04:25:40.005Z,98.70
2017-07-27T04:28:09.714Z,98.50
2017-07-27T04:30:40.577Z,98.40
2017-07-27T04:33:09.575Z,98.30
2017-07-27T04:35:38.331Z,98.60
2017-07-27T04:38:08.195Z,98.70
2017-07-27T04:40:36.622Z,98.70
2017-07-27T04:43:04.957Z,98.60
2017-07-27T04:45:33.361Z,98.80
2017-07-27T04:48:01.678Z,98.80
2017-07-27T04:50:30.019Z,98.90
2017-07-27T04:53:00.485Z,99.20
2017-07-27T04:55:28.824Z,99.20
2017-07-27T04:58:00.204Z,98.90
2017-07-27T05:00:28.656Z,98.90
2017-07-27T05:02:57.001Z,99.30
2017-07-27T05:05:25.322Z,98.90
2017-07-27T05:07:54.336Z,98.90
2017-07-27T05:10:24.301Z,99.00
2017-07-27T05:12:53.853Z,99.00
2017-07-27T05:15:22.731Z,99.00
2017-07-27T05:17:51.260Z,98.80
2017-07-27T05:20:19.821Z,98.80
2017-07-27T05:22:48.820Z,98.50
2017-07-27T05:25:17.318Z,98.70
2017-07-27T05:27:45.905Z,98.60
2017-07-27T05:30:15.716Z,98.70
2017-07-27T05:32:44.124Z,98.70
2017-07-27T05:35:12.930Z,98.60
2017-07-27T05:37:41.950Z,98.40
2017-07-27T05:40:11.223Z,98.40
2017-07-27T05:42:41.154Z,98.30
2017-07-27T05:45:10.643Z,98.30
2017-07-27T05:47:40.262Z,98.20
2017-07-27T05:50:09.952Z,98.20
2017-07-27T05:52:38.951Z,98.20
2017-07-27T05:55:08.639Z,98.10
2017-07-27T05:57:40.646Z,98.00
2017-07-27T06:00:10.141Z,98.20
2017-07-27T06:02:39.890Z,98.10
2017-07-27T06:05:09.572Z,98.20
2017-07-27T06:07:38.704Z,98.10
2017-07-27T06:10:08.200Z,98.20
2017-07-27T06:12:38.174Z,98.10
2017-07-27T06:15:06.673Z,98.10
2017-07-27T06:17:35.049Z,98.30
2017-07-27T06:20:04.126Z,98.50
2017-07-27T06:22:33.276Z,98.70
2017-07-27T06:25:01.674Z,98.70
2017-07-27T06:27:30.460Z,98.50
2017-07-27T06:29:58.839Z,98.40
2017-07-27T06:32:27.168Z,98.50
2017-07-27T06:34:55.895Z,98.50
2017-07-27T06:37:24.517Z,98.40
2017-07-27T06:39:53.033Z,98.40
2017-07-27T06:42:21.714Z,98.20
2017-07-27T06:44:50.183Z,98.10
2017-07-27T06:47:18.646Z,97.70
2017-07-27T06:49:47.162Z,97.80
2017-07-27T06:52:15.934Z,97.80
2017-07-27T06:54:44.606Z,97.70
2017-07-27T06:57:13.759Z,97.80
2017-07-27T06:59:42.753Z,97.80
2017-07-27T07:02:11.810Z,97.90
2017-07-27T07:04:40.817Z,98.10
2017-07-27T07:07:09.915Z,98.30
2017-07-27T07:09:38.788Z,98.10
2017-07-27T07:12:08.308Z,97.90
2017-07-27T07:14:36.882Z,98.00
2017-07-27T07:17:05.462Z,97.90
2017-07-27T07:19:34.092Z,97.60
2017-07-27T07:22:02.396Z,97.50
2017-07-27T07:24:30.844Z,97.50
2017-07-27T07:27:00.153Z,97.50
2017-07-27T07:29:28.486Z,97.40
2017-07-27T07:31:58.046Z,97.60
2017-07-27T07:34:26.976Z,97.90
2017-07-27T07:36:55.300Z,98.10
2017-07-27T07:39:23.629Z,98.30
2017-07-27T07:41:52.381Z,98.50
2017-07-27T07:44:20.835Z,98.70
2017-07-27T07:46:49.481Z,98.90
2017-07-27T07:49:18.514Z,99.20
2017-07-27T07:51:47.713Z,99.90
2017-07-27T07:54:16.240Z,99.90
2017-07-27T07:56:44.884Z,99.90
2017-07-27T07:59:13.389Z,99.90
2017-07-27T08:01:41.876Z,99.90
2017-07-27T08:04:11.625Z,99.90
2017-07-27T08:06:40.414Z,99.90
2017-07-27T08:09:21.780Z,99.90
2017-07-27T08:11:50.646Z,99.90
2017-07-27T08:14:19.295Z,99.90
2017-07-27T08:16:49.515Z,99.90
2017-07-27T08:19:18.030Z,99.90
2017-07-27T08:21:46.744Z,99.90
2017-07-27T08:24:15.542Z,99.90
2017-07-27T08:26:44.843Z,99.90
2017-07-27T08:29:13.906Z,99.90
2017-07-27T08:31:43.693Z,99.90
2017-07-27T08:34:12.486Z,99.90
2017-07-27T08:36:42.395Z,99.90
2017-07-27T08:39:11.288Z,99.90
2017-07-27T08:41:40.796Z,99.90
2017-07-27T08:44:09.550Z,99.90
2017-07-27T08:46:38.286Z,99.90
2017-07-27T08:49:06.640Z,99.90
2017-07-27T08:51:34.990Z,99.90
2017-07-27T08:54:04.115Z,99.90
2017-07-27T08:56:32.466Z,99.90
2017-07-27T08:59:01.840Z,99.90
2017-07-27T09:01:30.245Z,99.90
2017-07-27T09:03:58.554Z,99.90
2017-07-27T09:06:26.931Z,99.90
2017-07-27T09:08:56.650Z,99.90
2017-07-27T09:11:24.984Z,99.90
2017-07-27T09:13:53.332Z,99.90
2017-07-27T09:16:22.120Z,99.90
2017-07-27T09:18:50.633Z,99.90
2017-07-27T09:21:19.067Z,99.90
2017-07-27T09:23:48.492Z,99.90
2017-07-27T09:26:17.204Z,99.90
2017-07-27T09:28:45.713Z,99.90
2017-07-27T09:31:14.617Z,99.90
2017-07-27T09:33:43.252Z,99.80
2017-07-27T09:36:12.803Z,99.30
2017-07-27T09:38:42.893Z,99.30
2017-07-27T09:41:11.880Z,99.30
2017-07-27T09:43:40.673Z,99.30
2017-07-27T09:46:10.045Z,99.00
2017-07-27T09:48:40.117Z,98.60
2017-07-27T09:51:09.053Z,98.90
2017-07-27T09:53:38.755Z,98.80
2017-07-27T09:56:07.174Z,98.60
2017-07-27T09:58:35.688Z,98.70
2017-07-27T10:01:04.355Z,98.80
2017-07-27T10:03:32.704Z,98.90
2017-07-27T10:06:01.012Z,98.90
2017-07-27T10:08:30.279Z,98.80
2017-07-27T10:10:58.688Z,98.70
2017-07-27T10:13:27.039Z,98.60
2017-07-27T10:15:55.565Z,98.50
2017-07-27T10:18:23.930Z,98.50
2017-07-27T10:20:53.126Z,98.70
2017-07-27T10:23:22.501Z,98.60
2017-07-27T10:25:51.295Z,98.70
2017-07-27T10:28:19.871Z,98.70
2017-07-27T10:30:48.559Z,98.50
2017-07-27T10:33:17.062Z,98.60
2017-07-27T10:35:45.958Z,98.30
2017-07-27T10:38:15.058Z,97.60
2017-07-27T10:40:43.760Z,97.40
2017-07-27T10:43:12.294Z,96.90
2017-07-27T10:45:41.763Z,96.70
2017-07-27T10:48:10.934Z,96.30
2017-07-27T10:50:39.509Z,95.70
2017-07-27T10:53:08.712Z,94.70
2017-07-27T10:55:39.464Z,95.00
2017-07-27T10:58:08.436Z,95.00
2017-07-27T11:00:37.155Z,95.10
2017-07-27T11:03:06.457Z,94.70
2017-07-27T11:05:34.978Z,94.90
2017-07-27T11:08:03.850Z,94.30
2017-07-27T11:10:32.190Z,94.60
2017-07-27T11:13:01.474Z,94.90
2017-07-27T11:15:31.000Z,95.20
2017-07-27T11:17:59.347Z,95.20
2017-07-27T11:20:27.708Z,94.30
2017-07-27T11:22:56.745Z,93.70
2017-07-27T11:25:25.126Z,94.10
2017-07-27T11:27:53.538Z,93.80
2017-07-27T11:30:21.987Z,94.00
2017-07-27T11:32:50.503Z,93.30
2017-07-27T11:35:18.923Z,93.10
2017-07-27T11:37:47.951Z,91.30
2017-07-27T11:40:16.468Z,90.60
2017-07-27T11:42:45.018Z,89.40
2017-07-27T11:45:15.057Z,83.90
2017-07-27T11:47:44.375Z,81.30
2017-07-27T11:50:12.904Z,81.10
2017-07-27T11:52:42.162Z,84.10
2017-07-27T11:55:11.233Z,86.10
2017-07-27T11:57:39.850Z,86.50
2017-07-27T12:00:08.904Z,86.60
2017-07-27T12:02:37.350Z,87.20
2017-07-27T12:05:05.734Z,86.30
2017-07-27T12:07:34.505Z,86.00
2017-07-27T12:10:02.863Z,85.80
2017-07-27T12:12:31.196Z,87.10
2017-07-27T12:15:00.602Z,87.60
2017-07-27T12:17:28.984Z,88.30
2017-07-27T12:19:57.355Z,87.10
2017-07-27T12:22:26.111Z,85.70
2017-07-27T12:24:54.549Z,85.00
2017-07-27T12:27:22.945Z,84.20
2017-07-27T12:29:51.407Z,83.80
2017-07-27T12:32:20.049Z,83.00
2017-07-27T12:34:48.540Z,82.50
2017-07-27T12:37:17.151Z,84.20
2017-07-27T12:39:45.827Z,84.70
2017-07-27T12:42:14.602Z,84.70
2017-07-27T12:44:44.275Z,83.60
2017-07-27T12:47:14.093Z,82.20
2017-07-27T12:49:42.601Z,81.60
2017-07-27T12:52:11.904Z,82.00
2017-07-27T12:54:40.579Z,80.40
2017-07-27T12:57:09.225Z,80.80
2017-07-27T12:59:39.403Z,80.80
2017-07-27T13:02:08.436Z,80.50
2017-07-27T13:04:36.815Z,80.70
2017-07-27T13:07:05.489Z,81.80
2017-07-27T13:09:33.827Z,82.60
2017-07-27T13:12:02.192Z,81.50
2017-07-27T13:14:31.324Z,80.40
2017-07-27T13:17:00.620Z,80.50
2017-07-27T13:19:29.425Z,81.00
2017-07-27T13:21:59.740Z,82.00
2017-07-27T13:24:28.097Z,81.50
2017-07-27T13:26:56.809Z,82.40
2017-07-27T13:29:25.580Z,82.50
2017-07-27T13:31:53.973Z,82.90
2017-07-27T13:34:22.407Z,83.10
2017-07-27T13:36:51.050Z,82.60
2017-07-27T13:39:19.518Z,82.90
2017-07-27T13:41:48.127Z,82.70
2017-07-27T13:44:17.103Z,82.70
2017-07-27T13:46:45.810Z,81.90
2017-07-27T13:49:15.801Z,81.50
2017-07-27T13:51:45.003Z,78.60
2017-07-27T13:54:13.913Z,77.50
2017-07-27T13:56:43.690Z,76.40
2017-07-27T13:59:14.019Z,76.40
2017-07-27T14:01:42.612Z,75.50
2017-07-27T14:04:11.526Z,74.80
2017-07-27T14:06:41.330Z,74.50
2017-07-27T14:09:10.527Z,75.40
2017-07-27T14:11:39.422Z,74.50
2017-07-27T14:14:10.560Z,75.40
2017-07-27T14:16:40.395Z,74.30
2017-07-27T14:19:08.970Z,74.20
2017-07-27T14:21:39.835Z,75.30
2017-07-27T14:24:10.184Z,76.20
2017-07-27T14:26:39.097Z,77.10
2017-07-27T14:29:08.756Z,77.00
2017-07-27T14:31:37.263Z,77.40
2017-07-27T14:34:05.629Z,76.40
2017-07-27T14:36:34.374Z,76.80
2017-07-27T14:39:03.721Z,77.70
2017-07-27T14:41:32.050Z,76.80
2017-07-27T14:44:00.428Z,77.10
2017-07-27T14:46:28.757Z,78.00
2017-07-27T14:48:57.083Z,79.50
2017-07-27T14:51:27.305Z,79.40
2017-07-27T14:53:55.694Z,79.30
2017-07-27T14:56:24.005Z,79.40
2017-07-27T14:58:52.749Z,79.20
2017-07-27T15:01:21.296Z,79.90
2017-07-27T15:03:49.860Z,80.70
2017-07-27T15:06:18.666Z,81.10
2017-07-27T15:08:47.258Z,82.10
2017-07-27T15:11:15.859Z,82.30
2017-07-27T15:13:44.796Z,83.20
2017-07-27T15:16:13.189Z,83.80
2017-07-27T15:18:41.681Z,83.60
2017-07-27T15:21:10.810Z,83.60
2017-07-27T15:23:40.363Z,83.50
2017-07-27T15:26:08.941Z,83.10
2017-07-27T15:28:38.067Z,82.80
2017-07-27T15:31:06.534Z,82.70
2017-07-27T15:33:35.825Z,82.50
2017-07-27T15:36:04.674Z,82.30
2017-07-27T15:38:34.475Z,82.30
2017-07-27T15:41:02.900Z,82.10
2017-07-27T15:43:31.295Z,81.60
2017-07-27T15:45:59.651Z,82.00
2017-07-27T15:48:27.986Z,82.40
2017-07-27T15:50:56.749Z,82.30
2017-07-27T15:53:25.159Z,82.70
2017-07-27T15:55:54.271Z,83.30
2017-07-27T15:58:22.962Z,83.30
2017-07-27T16:00:51.341Z,83.70
2017-07-27T16:03:19.766Z,83.50
2017-07-27T16:05:48.870Z,83.50
2017-07-27T16:08:17.373Z,84.60
2017-07-27T16:10:45.856Z,85.20
2017-07-27T16:13:15.598Z,85.10
2017-07-27T16:15:44.859Z,85.30
2017-07-27T16:18:13.812Z,85.80
2017-07-27T16:20:43.041Z,85.50
2017-07-27T16:23:11.985Z,85.80
2017-07-27T16:25:40.677Z,85.60
2017-07-27T16:28:13.019Z,84.10
2017-07-27T16:30:41.843Z,83.60
2017-07-27T16:33:11.096Z,82.80
2017-07-27T16:35:40.411Z,83.40
2017-07-27T16:38:09.118Z,84.40
2017-07-27T16:40:38.358Z,85.30
2017-07-27T16:43:07.125Z,85.10
2017-07-27T16:45:37.301Z,86.20
2017-07-27T16:48:05.674Z,86.20
2017-07-27T16:50:34.139Z,86.60
2017-07-27T16:53:02.534Z,87.40
2017-07-27T16:55:30.849Z,88.30
2017-07-27T16:57:59.599Z,88.80
2017-07-27T17:00:29.003Z,88.70
2017-07-27T17:02:57.351Z,89.40
2017-07-27T17:05:26.785Z,90.00
2017-07-27T17:07:55.121Z,90.00
2017-07-27T17:10:23.534Z,90.00
2017-07-27T17:12:52.280Z,89.80
2017-07-27T17:15:22.071Z,89.80
2017-07-27T17:17:50.932Z,89.70
2017-07-27T17:20:21.299Z,89.80
2017-07-27T17:22:50.623Z,90.20
2017-07-27T17:25:20.625Z,90.10
2017-07-27T17:27:49.906Z,90.10
2017-07-27T17:30:18.518Z,90.20
2017-07-27T17:32:46.953Z,90.30
2017-07-27T17:35:15.650Z,90.50
2017-07-27T17:37:45.153Z,90.60
2017-07-27T17:40:13.947Z,90.70
2017-07-27T17:42:44.007Z,91.00
2017-07-27T17:45:13.184Z,91.00
2017-07-27T17:47:41.827Z,91.10
2017-07-27T17:50:10.775Z,91.20
2017-07-27T17:52:40.411Z,91.40
2017-07-27T17:55:09.113Z,91.30
2017-07-27T17:57:37.624Z,91.40
2017-07-27T18:00:06.263Z,91.50
2017-07-27T18:02:34.594Z,91.30
2017-07-27T18:05:03.286Z,91.10
2017-07-27T18:07:31.613Z,91.30
2017-07-27T18:09:59.941Z,91.40
2017-07-27T18:12:29.505Z,91.60
2017-07-27T18:14:57.860Z,91.80
2017-07-27T18:17:27.304Z,91.70
2017-07-27T18:19:56.708Z,91.80
2017-07-27T18:22:26.387Z,91.80
2017-07-27T18:24:55.722Z,91.80
2017-07-27T18:27:24.479Z,92.00
2017-07-27T18:29:52.909Z,92.10
2017-07-27T18:32:21.364Z,92.30
2017-07-27T18:34:50.170Z,92.30
2017-07-27T18:37:19.889Z,92.60
2017-07-27T18:39:48.470Z,92.60
2017-07-27T18:42:18.843Z,92.80
2017-07-27T18:44:48.200Z,93.00
2017-07-27T18:47:16.671Z,92.90
2017-07-27T18:49:45.708Z,93.00
2017-07-27T18:52:14.233Z,93.10
2017-07-27T18:54:42.835Z,93.20
2017-07-27T18:57:12.543Z,92.90
2017-07-27T18:59:41.515Z,92.90
2017-07-27T19:02:10.782Z,93.10
2017-07-27T19:04:39.578Z,93.20
2017-07-27T19:07:08.050Z,93.20
2017-07-27T19:09:36.406Z,93.00
2017-07-27T19:12:05.061Z,93.20
2017-07-27T19:14:33.389Z,93.20
2017-07-27T19:17:01.746Z,93.30
2017-07-27T19:19:30.557Z,93.40
2017-07-27T19:22:00.623Z,93.40
2017-07-27T19:24:29.104Z,93.60
2017-07-27T19:26:57.865Z,93.70
2017-07-27T19:29:26.214Z,93.70
2017-07-27T19:31:55.298Z,93.90
2017-07-27T19:34:24.022Z,93.90
2017-07-27T19:36:52.403Z,93.90
2017-07-27T19:39:22.148Z,94.00
2017-07-27T19:41:51.546Z,94.20
2017-07-27T19:44:20.436Z,94.20
2017-07-27T19:46:49.053Z,94.30
2017-07-27T19:49:18.817Z,94.40
2017-07-27T19:51:47.242Z,94.50
2017-07-27T19:54:15.820Z,94.60
2017-07-27T19:56:44.956Z,94.70
2017-07-27T19:59:13.935Z,94.70
2017-07-27T20:01:42.530Z,94.80
2017-07-27T20:04:12.752Z,94.80
2017-07-27T20:06:41.525Z,94.90
2017-07-27T20:09:10.396Z,95.10
2017-07-27T20:11:39.430Z,95.20
2017-07-27T20:14:08.072Z,95.20
2017-07-27T20:16:36.438Z,95.40
2017-07-27T20:19:05.190Z,95.60
2017-07-27T20:21:33.635Z,95.70
2017-07-27T20:24:01.976Z,95.70
2017-07-27T20:26:31.111Z,95.80
2017-07-27T20:29:00.465Z,95.40
2017-07-27T20:31:28.844Z,95.30
2017-07-27T20:33:57.657Z,95.20
2017-07-27T20:36:25.989Z,95.30
2017-07-27T20:38:54.368Z,95.20
2017-07-27T20:41:24.004Z,95.30
2017-07-27T20:43:53.116Z,95.30
2017-07-27T20:46:21.536Z,95.30
2017-07-27T20:48:50.222Z,95.40
2017-07-27T20:51:18.821Z,95.40
2017-07-27T20:53:48.371Z,96.00
2017-07-27T20:56:17.978Z,95.60
2017-07-27T20:58:46.685Z,95.70
2017-07-27T21:01:15.409Z,95.80
2017-07-27T21:03:44.343Z,95.90
2017-07-27T21:06:13.731Z,96.10
2017-07-27T21:08:42.542Z,96.20
2017-07-27T21:11:12.984Z,96.30
2017-07-27T21:13:41.737Z,96.30
2017-07-27T21:16:10.665Z,96.20
2017-07-27T21:18:41.582Z,96.40
2017-07-27T21:21:11.098Z,96.30
2017-07-27T21:23:39.977Z,96.20
2017-07-27T21:26:12.195Z,96.30
2017-07-27T21:28:41.014Z,96.20
2017-07-27T21:31:09.624Z,96.30
2017-07-27T21:33:39.502Z,96.30
2017-07-27T21:36:10.147Z,96.50
2017-07-27T21:38:38.866Z,96.60
2017-07-27T21:41:07.653Z,96.60
2017-07-27T21:43:36.018Z,96.50
2017-07-27T21:46:05.122Z,96.60
2017-07-27T21:48:34.251Z,96.50
2017-07-27T21:51:02.589Z,96.50
2017-07-27T21:53:31.026Z,96.70
2017-07-27T21:55:59.594Z,96.90
2017-07-27T21:58:28.003Z,96.80
2017-07-27T22:00:56.430Z,96.80
2017-07-27T22:03:25.174Z,97.00
2017-07-27T22:05:54.318Z,96.90
2017-07-27T22:08:22.726Z,96.80
2017-07-27T22:10:51.364Z,96.90
2017-07-27T22:13:20.682Z,97.10
2017-07-27T22:15:49.280Z,97.10
2017-07-27T22:18:18.994Z,97.30
2017-07-27T22:20:47.640Z,97.40
2017-07-27T22:23:17.099Z,97.80
2017-07-27T22:25:45.950Z,97.80
2017-07-27T22:28:15.558Z,97.90
2017-07-27T22:30:44.503Z,97.90
2017-07-27T22:33:15.089Z,97.90
2017-07-27T22:35:43.764Z,97.80
2017-07-27T22:38:13.049Z,97.70
2017-07-27T22:40:44.133Z,97.90
2017-07-27T22:43:13.462Z,97.80
2017-07-27T22:45:43.165Z,97.80
2017-07-27T22:48:12.363Z,97.90
2017-07-27T22:50:41.641Z,97.90
2017-07-27T22:53:10.975Z,98.00
2017-07-27T22:55:41.002Z,98.10
2017-07-27T22:58:10.139Z,98.30
2017-07-27T23:00:40.098Z,98.20
2017-07-27T23:03:11.031Z,98.20
2017-07-27T23:05:40.705Z,98.30
2017-07-27T23:08:09.314Z,98.50
2017-07-27T23:10:38.625Z,98.60
2017-07-27T23:13:07.315Z,98.50
2017-07-27T23:15:35.923Z,98.60
2017-07-27T23:18:04.569Z,98.60
2017-07-27T23:20:32.978Z,98.70
2017-07-27T23:23:01.311Z,98.70
2017-07-27T23:25:29.721Z,98.90
2017-07-27T23:27:58.100Z,99.00
2017-07-27T23:30:26.475Z,99.20
2017-07-27T23:32:54.871Z,99.40
2017-07-27T23:35:23.356Z,99.70
2017-07-27T23:37:52.006Z,99.70
2017-07-27T23:40:25.467Z,99.80
2017-07-27T23:42:55.227Z,99.80
2017-07-27T23:45:23.790Z,99.80
2017-07-27T23:47:52.632Z,99.90
2017-07-27T23:50:22.533Z,99.90
2017-07-27T23:52:51.693Z,99.90
2017-07-27T23:55:20.199Z,99.90
2017-07-27T23:57:49.100Z,99.90
